Patricia Ann — WDE2845 — position and weather

sailwx.info

Track history (hours):
 
Tides and Currents Weather Stations Pressure Air Temp Water Temp Dewpoint Dewpoint Depression Visibility Wind Speed Wind Dir Waves Ship Positions

Patricia Ann

Owner: AmNav Maritime Services, Oakland, CA. More information available from US FCC via Universal Licensing System and Coast Guard Vessel Documentation Center.

Last reported at 2016-Sep-30 10:34 UTC. Time now 2016-Sep-30 13:33 UTC.
Position N 37°49' W 122°19'.

Length 24 m; draft 4.9 m.

Type: Tug. MMSI: 367330510.

Date/timePositionNaut miles runAvg speedWind from/ knotsBaromVisibWave heightAir tempDewpointWater temp
2016-Sep-30 10:34N 37°49' W 122°19'1 0.4
2016-Sep-30 08:32N 37°49' W 122°19'0 0.0
2016-Sep-30 06:33N 37°49' W 122°19'0 0.0
2016-Sep-30 03:33N 37°49' W 122°19'2 1.6
2016-Sep-30 02:33N 37°48' W 122°18'2 0.8
2016-Sep-29 23:34N 37°48' W 122°21'2 1.0
2016-Sep-29 21:33N 37°49' W 122°19'0 0.0
2016-Sep-29 20:33N 37°49' W 122°19'0 0.0
2016-Sep-29 19:33N 37°49' W 122°19'2 0.6
2016-Sep-29 16:33N 37°48' W 122°20'0 0.3
2016-Sep-29 15:34N 37°48' W 122°21'0 0.0
2016-Sep-29 14:34N 37°48' W 122°21'0 0.0
2016-Sep-29 13:34N 37°48' W 122°21'0 0.0
2016-Sep-29 08:33N 37°48' W 122°21'2 1.7
2016-Sep-29 07:34N 37°48' W 122°19'1 0.2
2016-Sep-29 00:33N 37°48' W 122°17'2 0.7
2016-Sep-28 21:33N 37°49' W 122°19'0 0.0
2016-Sep-28 19:34N 37°49' W 122°19'2 0.5
2016-Sep-28 16:34N 37°48' W 122°19'2 1.6
2016-Sep-28 15:34N 37°49' W 122°19'0 0.0
2016-Sep-28 12:34N 37°49' W 122°19'0 0.0
2016-Sep-28 08:33N 37°49' W 122°19'0 0.0
2016-Sep-28 03:34N 37°49' W 122°19'0 0.0
2016-Sep-28 02:34N 37°49' W 122°19'1 1.0
2016-Sep-28 01:33N 37°49' W 122°20'0 0.0
2016-Sep-27 23:34N 37°49' W 122°20'1 0.3
2016-Sep-27 19:34N 37°49' W 122°19'0 0.0
2016-Sep-27 14:33N 37°49' W 122°19'2 1.6
2016-Sep-27 13:33N 37°48' W 122°19'1 0.4
2016-Sep-27 10:34N 37°48' W 122°21'1 0.1
2016-Sep-27 00:33N 37°49' W 122°20'1 0.3
2016-Sep-26 20:33N 37°49' W 122°19'0 0.0
2016-Sep-26 19:34N 37°49' W 122°19'2 0.4
2016-Sep-26 15:34N 37°48' W 122°18'2 0.9
2016-Sep-26 13:34N 37°48' W 122°21'0 0.0
2016-Sep-26 11:33N 37°48' W 122°21'0 0.0
2016-Sep-26 08:34N 37°48' W 122°20'6 1.0
2016-Sep-26 02:34N 37°54' W 122°22'3 2.8
2016-Sep-26 01:34N 37°55' W 122°25'3 2.9
2016-Sep-26 00:34N 37°54' W 122°22'6 1.9
2016-Sep-25 21:34N 37°49' W 122°19'0 0.0
2016-Sep-25 17:34N 37°49' W 122°19'0 0.0
2016-Sep-25 16:33N 37°49' W 122°19'0 0.0
2016-Sep-25 15:34N 37°49' W 122°19'0 0.0
2016-Sep-25 14:34N 37°49' W 122°19'1 0.5
2016-Sep-25 12:34N 37°49' W 122°20'1 0.6
2016-Sep-25 11:33N 37°48' W 122°21'0 0.0
2016-Sep-25 10:34N 37°48' W 122°21'0 0.0
2016-Sep-25 09:34N 37°48' W 122°21'2 0.9
2016-Sep-25 07:33N 37°49' W 122°19'0 0.0
2016-Sep-25 04:33N 37°49' W 122°19'2 0.5
2016-Sep-25 00:33N 37°48' W 122°18'2 1.0
2016-Sep-24 22:33N 37°49' W 122°19'0 0.0
2016-Sep-24 21:34N 37°49' W 122°19'0 0.0
2016-Sep-24 19:33N 37°49' W 122°19'0 0.0
2016-Sep-24 18:33N 37°49' W 122°19'0 0.0
2016-Sep-24 17:33N 37°49' W 122°19'0 0.0
2016-Sep-24 16:34N 37°49' W 122°19'0 0.0
2016-Sep-24 14:33N 37°49' W 122°19'2 1.0
2016-Sep-24 12:33N 37°48' W 122°17'2 1.0
2016-Sep-24 10:34N 37°49' W 122°19'0 0.0
2016-Sep-24 09:34N 37°49' W 122°19'0 0.0
2016-Sep-24 03:34N 37°49' W 122°19'0 0.0
2016-Sep-24 02:33N 37°49' W 122°19'0 0.0
2016-Sep-24 01:33N 37°49' W 122°19'0 0.0
2016-Sep-24 00:33N 37°49' W 122°19'0 0.0
2016-Sep-23 19:33N 37°49' W 122°19'2 0.9
2016-Sep-23 17:34N 37°48' W 122°18'2 1.8
2016-Sep-23 16:33N 37°49' W 122°19'0 0.0
2016-Sep-23 15:33N 37°49' W 122°19'0 0.0
2016-Sep-23 13:33N 37°49' W 122°19'0 0.0
2016-Sep-23 09:33N 37°49' W 122°19'3 0.9
2016-Sep-23 06:34N 37°47' W 122°21'18 8.9
2016-Sep-23 04:33N 37°31' W 122°13'3 2.6
2016-Sep-23 03:22N 37°34' W 122°12'3 4.1
2016-Sep-23 02:34N 37°36' W 122°16'8 8.0
2016-Sep-23 01:34N 37°43' W 122°20'7 6.6
2016-Sep-23 00:34N 37°49' W 122°19'0 0.0
2016-Sep-22 23:34N 37°49' W 122°19'0 0.0
2016-Sep-22 20:34N 37°49' W 122°19'1 0.1
2016-Sep-22 12:33N 37°49' W 122°20'1 0.1
2016-Sep-22 04:33N 37°49' W 122°19'0 0.0
2016-Sep-22 03:33N 37°49' W 122°19'8 2.6
2016-Sep-22 00:33N 37°55' W 122°25'8 8.2
2016-Sep-21 23:34N 37°48' W 122°21'3 2.5
2016-Sep-21 22:33N 37°48' W 122°17'2 0.7
2016-Sep-21 19:34N 37°49' W 122°19'0 0.0
2016-Sep-21 16:33N 37°49' W 122°19'0 0.0
2016-Sep-21 09:33N 37°49' W 122°19'0 0.0
2016-Sep-21 08:33N 37°49' W 122°19'0 0.0
2016-Sep-21 05:34N 37°49' W 122°19'0 0.0
2016-Sep-21 03:33N 37°49' W 122°19'0 0.0
2016-Sep-21 02:34N 37°49' W 122°19'0 0.0
2016-Sep-20 17:34N 37°49' W 122°19'0 0.0
2016-Sep-20 14:33N 37°49' W 122°19'1 1.1
2016-Sep-20 13:33N 37°49' W 122°20'  
Track history (hours):
 
Tides and Currents Weather Stations Pressure Air Temp Water Temp Dewpoint Dewpoint Depression Visibility Wind Speed Wind Dir Waves Ship Positions

Patricia Ann

Owner: AmNav Maritime Services, Oakland, CA. More information available from US FCC via Universal Licensing System and Coast Guard Vessel Documentation Center.

Last reported at 2016-Sep-30 10:34 UTC. Time now 2016-Sep-30 13:33 UTC.
Position N 37°49' W 122°19'.

Length 24 m; draft 4.9 m.

Type: Tug. MMSI: 367330510.

Date/timePositionNaut miles runAvg speedWind from/ knotsBaromVisibWave heightAir tempDewpointWater temp
2016-Sep-30 10:34N 37°49' W 122°19'1 0.4
2016-Sep-30 08:32N 37°49' W 122°19'0 0.0
2016-Sep-30 06:33N 37°49' W 122°19'0 0.0
2016-Sep-30 03:33N 37°49' W 122°19'2 1.6
2016-Sep-30 02:33N 37°48' W 122°18'2 0.8
2016-Sep-29 23:34N 37°48' W 122°21'2 1.0
2016-Sep-29 21:33N 37°49' W 122°19'0 0.0
2016-Sep-29 20:33N 37°49' W 122°19'0 0.0
2016-Sep-29 19:33N 37°49' W 122°19'2 0.6
2016-Sep-29 16:33N 37°48' W 122°20'0 0.3
2016-Sep-29 15:34N 37°48' W 122°21'0 0.0
2016-Sep-29 14:34N 37°48' W 122°21'0 0.0
2016-Sep-29 13:34N 37°48' W 122°21'0 0.0
2016-Sep-29 08:33N 37°48' W 122°21'2 1.7
2016-Sep-29 07:34N 37°48' W 122°19'1 0.2
2016-Sep-29 00:33N 37°48' W 122°17'2 0.7
2016-Sep-28 21:33N 37°49' W 122°19'0 0.0
2016-Sep-28 19:34N 37°49' W 122°19'2 0.5
2016-Sep-28 16:34N 37°48' W 122°19'2 1.6
2016-Sep-28 15:34N 37°49' W 122°19'0 0.0
2016-Sep-28 12:34N 37°49' W 122°19'0 0.0
2016-Sep-28 08:33N 37°49' W 122°19'0 0.0
2016-Sep-28 03:34N 37°49' W 122°19'0 0.0
2016-Sep-28 02:34N 37°49' W 122°19'1 1.0
2016-Sep-28 01:33N 37°49' W 122°20'0 0.0
2016-Sep-27 23:34N 37°49' W 122°20'1 0.3
2016-Sep-27 19:34N 37°49' W 122°19'0 0.0
2016-Sep-27 14:33N 37°49' W 122°19'2 1.6
2016-Sep-27 13:33N 37°48' W 122°19'1 0.4
2016-Sep-27 10:34N 37°48' W 122°21'1 0.1
2016-Sep-27 00:33N 37°49' W 122°20'1 0.3
2016-Sep-26 20:33N 37°49' W 122°19'0 0.0
2016-Sep-26 19:34N 37°49' W 122°19'2 0.4
2016-Sep-26 15:34N 37°48' W 122°18'2 0.9
2016-Sep-26 13:34N 37°48' W 122°21'0 0.0
2016-Sep-26 11:33N 37°48' W 122°21'0 0.0
2016-Sep-26 08:34N 37°48' W 122°20'6 1.0
2016-Sep-26 02:34N 37°54' W 122°22'3 2.8
2016-Sep-26 01:34N 37°55' W 122°25'3 2.9
2016-Sep-26 00:34N 37°54' W 122°22'6 1.9
2016-Sep-25 21:34N 37°49' W 122°19'0 0.0
2016-Sep-25 17:34N 37°49' W 122°19'0 0.0
2016-Sep-25 16:33N 37°49' W 122°19'0 0.0
2016-Sep-25 15:34N 37°49' W 122°19'0 0.0
2016-Sep-25 14:34N 37°49' W 122°19'1 0.5
2016-Sep-25 12:34N 37°49' W 122°20'1 0.6
2016-Sep-25 11:33N 37°48' W 122°21'0 0.0
2016-Sep-25 10:34N 37°48' W 122°21'0 0.0
2016-Sep-25 09:34N 37°48' W 122°21'2 0.9
2016-Sep-25 07:33N 37°49' W 122°19'0 0.0
2016-Sep-25 04:33N 37°49' W 122°19'2 0.5
2016-Sep-25 00:33N 37°48' W 122°18'2 1.0
2016-Sep-24 22:33N 37°49' W 122°19'0 0.0
2016-Sep-24 21:34N 37°49' W 122°19'0 0.0
2016-Sep-24 19:33N 37°49' W 122°19'0 0.0
2016-Sep-24 18:33N 37°49' W 122°19'0 0.0
2016-Sep-24 17:33N 37°49' W 122°19'0 0.0
2016-Sep-24 16:34N 37°49' W 122°19'0 0.0
2016-Sep-24 14:33N 37°49' W 122°19'2 1.0
2016-Sep-24 12:33N 37°48' W 122°17'2 1.0
2016-Sep-24 10:34N 37°49' W 122°19'0 0.0
2016-Sep-24 09:34N 37°49' W 122°19'0 0.0
2016-Sep-24 03:34N 37°49' W 122°19'0 0.0
2016-Sep-24 02:33N 37°49' W 122°19'0 0.0
2016-Sep-24 01:33N 37°49' W 122°19'0 0.0
2016-Sep-24 00:33N 37°49' W 122°19'0 0.0
2016-Sep-23 19:33N 37°49' W 122°19'2 0.9
2016-Sep-23 17:34N 37°48' W 122°18'2 1.8
2016-Sep-23 16:33N 37°49' W 122°19'0 0.0
2016-Sep-23 15:33N 37°49' W 122°19'0 0.0
2016-Sep-23 13:33N 37°49' W 122°19'0 0.0
2016-Sep-23 09:33N 37°49' W 122°19'3 0.9
2016-Sep-23 06:34N 37°47' W 122°21'18 8.9
2016-Sep-23 04:33N 37°31' W 122°13'3 2.6
2016-Sep-23 03:22N 37°34' W 122°12'3 4.1
2016-Sep-23 02:34N 37°36' W 122°16'8 8.0
2016-Sep-23 01:34N 37°43' W 122°20'7 6.6
2016-Sep-23 00:34N 37°49' W 122°19'0 0.0
2016-Sep-22 23:34N 37°49' W 122°19'0 0.0
2016-Sep-22 20:34N 37°49' W 122°19'1 0.1
2016-Sep-22 12:33N 37°49' W 122°20'1 0.1
2016-Sep-22 04:33N 37°49' W 122°19'0 0.0
2016-Sep-22 03:33N 37°49' W 122°19'8 2.6
2016-Sep-22 00:33N 37°55' W 122°25'8 8.2
2016-Sep-21 23:34N 37°48' W 122°21'3 2.5
2016-Sep-21 22:33N 37°48' W 122°17'2 0.7
2016-Sep-21 19:34N 37°49' W 122°19'0 0.0
2016-Sep-21 16:33N 37°49' W 122°19'0 0.0
2016-Sep-21 09:33N 37°49' W 122°19'0 0.0
2016-Sep-21 08:33N 37°49' W 122°19'0 0.0
2016-Sep-21 05:34N 37°49' W 122°19'0 0.0
2016-Sep-21 03:33N 37°49' W 122°19'0 0.0
2016-Sep-21 02:34N 37°49' W 122°19'0 0.0
2016-Sep-20 17:34N 37°49' W 122°19'0 0.0
2016-Sep-20 14:33N 37°49' W 122°19'1 1.1
2016-Sep-20 13:33N 37°49' W 122°20'  

Dump ship's entire track history